Decoded Metar for SARF (FORMOSA in ARGENTINA) (IATA:FMA) | Meteo·Mobile Aviation Weather
aviador You're here:

SARF Decoded Metar

FORMOSA in ARGENTINA
Report Time2019-08-19 18:00:00
UTC Time2019-08-19 18:34:43
Flight Rules vfr VFR
Wind180° at 11 kt
W.Decomp.*RWY 22: 9.7 kt HW 5.2 kt LCW
Visibility8000 m
Phenomena:N/A
Clouds:N/A
Expected CloudBase > 4,800 ft AGL from Temp-Dew spread
CeilingNone
Temp20°C (ISA +5)
Dew Point08°C (46% RH)
AAT15.6°C
QNH1020 hPa
Density Alt738 ft
Elevation197 ft
Report Wrong Elevation
Raw Report
SARF 191800Z 18011KT 8000 NSC 20/08 Q1020=

Extra information for SARF:More info

Metar Taf Metar & Taf Last 4 Metars F.Rules Stats Wind Profile Meteogram Temp Stats Airport Information Weather charts Add Link Nearby VenuesMetar ALERT Operation Metar Decoded Social comments